sensor_id;sensor_type;location;lat;lon;timestamp;P1;durP1;ratioP1;P2;durP2;ratioP2
20124;SDS011;10223;50.862;4.360;2023-04-01T00:00:00;10.10;;;2.30;;
20124;SDS011;10223;50.862;4.360;2023-04-01T00:02:26;9.70;;;2.10;;
20124;SDS011;10223;50.862;4.360;2023-04-01T00:04:53;9.90;;;2.50;;
20124;SDS011;10223;50.862;4.360;2023-04-01T00:07:20;6.37;;;2.30;;
20124;SDS011;10223;50.862;4.360;2023-04-01T00:09:47;3.60;;;1.67;;
20124;SDS011;10223;50.862;4.360;2023-04-01T00:12:16;11.40;;;2.77;;
20124;SDS011;10223;50.862;4.360;2023-04-01T00:14:43;9.13;;;3.00;;
20124;SDS011;10223;50.862;4.360;2023-04-01T00:17:10;8.27;;;2.70;;
20124;SDS011;10223;50.862;4.360;2023-04-01T00:19:37;13.17;;;2.30;;
20124;SDS011;10223;50.862;4.360;2023-04-01T00:22:04;6.80;;;2.77;;
20124;SDS011;10223;50.862;4.360;2023-04-01T00:24:31;14.40;;;3.03;;
20124;SDS011;10223;50.862;4.360;2023-04-01T00:26:58;9.43;;;2.93;;
20124;SDS011;10223;50.862;4.360;2023-04-01T00:29:26;10.83;;;2.60;;
20124;SDS011;10223;50.862;4.360;2023-04-01T00:31:55;11.10;;;2.77;;
20124;SDS011;10223;50.862;4.360;2023-04-01T00:34:23;9.37;;;2.77;;
20124;SDS011;10223;50.862;4.360;2023-04-01T00:36:50;8.47;;;2.60;;
20124;SDS011;10223;50.862;4.360;2023-04-01T00:39:19;5.93;;;1.93;;
20124;SDS011;10223;50.862;4.360;2023-04-01T00:41:50;11.17;;;2.60;;
20124;SDS011;10223;50.862;4.360;2023-04-01T00:44:18;7.13;;;2.13;;
20124;SDS011;10223;50.862;4.360;2023-04-01T00:46:48;10.50;;;2.30;;
20124;SDS011;10223;50.862;4.360;2023-04-01T00:49:17;5.97;;;2.03;;
20124;SDS011;10223;50.862;4.360;2023-04-01T00:51:47;6.10;;;1.90;;
20124;SDS011;10223;50.862;4.360;2023-04-01T00:54:16;4.23;;;1.73;;
20124;SDS011;10223;50.862;4.360;2023-04-01T00:56:45;4.50;;;1.47;;
20124;SDS011;10223;50.862;4.360;2023-04-01T00:59:20;3.73;;;1.57;;
20124;SDS011;10223;50.862;4.360;2023-04-01T01:01:51;4.07;;;1.33;;
20124;SDS011;10223;50.862;4.360;2023-04-01T01:04:20;3.63;;;1.07;;
20124;SDS011;10223;50.862;4.360;2023-04-01T01:06:54;6.33;;;1.60;;
20124;SDS011;10223;50.862;4.360;2023-04-01T01:09:30;2.87;;;1.30;;
20124;SDS011;10223;50.862;4.360;2023-04-01T01:12:05;5.33;;;1.27;;
20124;SDS011;10223;50.862;4.360;2023-04-01T01:14:38;5.47;;;1.50;;
20124;SDS011;10223;50.862;4.360;2023-04-01T01:17:18;4.10;;;1.20;;
20124;SDS011;10223;50.862;4.360;2023-04-01T01:20:10;3.70;;;1.20;;
20124;SDS011;10223;50.862;4.360;2023-04-01T01:23:06;5.20;;;1.27;;
20124;SDS011;10223;50.862;4.360;2023-04-01T01:29:05;3.23;;;1.20;;
20124;SDS011;10223;50.862;4.360;2023-04-01T01:31:44;5.27;;;1.30;;
20124;SDS011;10223;50.862;4.360;2023-04-01T01:34:18;4.13;;;1.53;;
20124;SDS011;10223;50.862;4.360;2023-04-01T01:36:50;4.77;;;1.40;;
20124;SDS011;10223;50.862;4.360;2023-04-01T01:39:22;4.53;;;1.17;;
20124;SDS011;10223;50.862;4.360;2023-04-01T01:41:55;3.10;;;1.60;;
20124;SDS011;10223;50.862;4.360;2023-04-01T01:44:26;1.90;;;1.30;;
20124;SDS011;10223;50.862;4.360;2023-04-01T01:46:55;2.77;;;1.50;;
20124;SDS011;10223;50.862;4.360;2023-04-01T01:49:23;3.63;;;2.07;;
20124;SDS011;10223;50.862;4.360;2023-04-01T01:51:53;8.53;;;2.50;;
20124;SDS011;10223;50.862;4.360;2023-04-01T01:54:19;5.63;;;2.60;;
20124;SDS011;10223;50.862;4.360;2023-04-01T01:56:48;9.17;;;3.03;;
20124;SDS011;10223;50.862;4.360;2023-04-01T01:59:17;9.73;;;3.37;;
20124;SDS011;10223;50.862;4.360;2023-04-01T02:01:48;7.60;;;3.50;;
20124;SDS011;10223;50.862;4.360;2023-04-01T02:04:17;7.53;;;3.90;;
20124;SDS011;10223;50.862;4.360;2023-04-01T02:06:46;10.20;;;4.23;;
20124;SDS011;10223;50.862;4.360;2023-04-01T02:09:20;8.20;;;3.93;;
20124;SDS011;10223;50.862;4.360;2023-04-01T02:11:47;7.67;;;3.47;;
20124;SDS011;10223;50.862;4.360;2023-04-01T02:14:17;7.80;;;3.10;;
20124;SDS011;10223;50.862;4.360;2023-04-01T02:16:49;10.37;;;3.60;;
20124;SDS011;10223;50.862;4.360;2023-04-01T02:19:19;9.90;;;3.50;;
20124;SDS011;10223;50.862;4.360;2023-04-01T02:21:51;8.73;;;3.37;;
20124;SDS011;10223;50.862;4.360;2023-04-01T02:24:24;11.40;;;4.07;;
20124;SDS011;10223;50.862;4.360;2023-04-01T02:26:54;7.23;;;3.50;;
20124;SDS011;10223;50.862;4.360;2023-04-01T02:29:21;6.97;;;2.90;;
20124;SDS011;10223;50.862;4.360;2023-04-01T02:31:50;6.57;;;3.20;;
20124;SDS011;10223;50.862;4.360;2023-04-01T02:34:19;8.47;;;3.00;;
20124;SDS011;10223;50.862;4.360;2023-04-01T02:36:47;9.40;;;2.93;;
20124;SDS011;10223;50.862;4.360;2023-04-01T02:39:15;7.83;;;3.27;;
20124;SDS011;10223;50.862;4.360;2023-04-01T02:41:44;11.13;;;2.70;;
20124;SDS011;10223;50.862;4.360;2023-04-01T02:44:13;7.33;;;2.50;;
20124;SDS011;10223;50.862;4.360;2023-04-01T02:46:40;6.63;;;2.40;;
20124;SDS011;10223;50.862;4.360;2023-04-01T02:49:08;6.83;;;2.73;;
20124;SDS011;10223;50.862;4.360;2023-04-01T02:51:35;15.03;;;2.53;;
20124;SDS011;10223;50.862;4.360;2023-04-01T02:54:03;10.90;;;2.90;;
20124;SDS011;10223;50.862;4.360;2023-04-01T02:56:30;6.87;;;2.33;;
20124;SDS011;10223;50.862;4.360;2023-04-01T02:58:58;9.20;;;3.00;;
20124;SDS011;10223;50.862;4.360;2023-04-01T03:01:25;8.90;;;3.37;;
20124;SDS011;10223;50.862;4.360;2023-04-01T03:03:52;8.63;;;3.17;;
20124;SDS011;10223;50.862;4.360;2023-04-01T03:06:19;10.30;;;2.83;;
20124;SDS011;10223;50.862;4.360;2023-04-01T03:08:46;10.00;;;3.03;;
20124;SDS011;10223;50.862;4.360;2023-04-01T03:11:12;7.07;;;2.40;;
20124;SDS011;10223;50.862;4.360;2023-04-01T03:13:40;8.63;;;2.80;;
20124;SDS011;10223;50.862;4.360;2023-04-01T03:16:08;11.17;;;3.50;;
20124;SDS011;10223;50.862;4.360;2023-04-01T03:18:35;9.43;;;3.53;;
20124;SDS011;10223;50.862;4.360;2023-04-01T03:21:14;6.50;;;3.70;;
20124;SDS011;10223;50.862;4.360;2023-04-01T03:23:42;8.20;;;3.80;;
20124;SDS011;10223;50.862;4.360;2023-04-01T03:26:10;10.40;;;3.93;;
20124;SDS011;10223;50.862;4.360;2023-04-01T03:28:37;10.93;;;4.33;;
20124;SDS011;10223;50.862;4.360;2023-04-01T03:31:04;14.00;;;5.13;;
20124;SDS011;10223;50.862;4.360;2023-04-01T03:33:33;11.63;;;4.83;;
20124;SDS011;10223;50.862;4.360;2023-04-01T03:36:00;13.87;;;5.13;;
20124;SDS011;10223;50.862;4.360;2023-04-01T03:38:28;14.50;;;4.80;;
20124;SDS011;10223;50.862;4.360;2023-04-01T03:40:55;17.80;;;5.43;;
20124;SDS011;10223;50.862;4.360;2023-04-01T03:43:22;13.03;;;4.90;;
20124;SDS011;10223;50.862;4.360;2023-04-01T03:45:50;13.17;;;4.90;;
20124;SDS011;10223;50.862;4.360;2023-04-01T03:48:17;13.70;;;5.03;;
20124;SDS011;10223;50.862;4.360;2023-04-01T03:50:46;15.70;;;5.17;;
20124;SDS011;10223;50.862;4.360;2023-04-01T03:53:13;14.03;;;5.70;;
20124;SDS011;10223;50.862;4.360;2023-04-01T03:55:40;16.03;;;5.33;;
20124;SDS011;10223;50.862;4.360;2023-04-01T03:58:07;13.07;;;5.27;;
20124;SDS011;10223;50.862;4.360;2023-04-01T04:00:35;10.23;;;4.60;;
20124;SDS011;10223;50.862;4.360;2023-04-01T04:03:02;11.57;;;5.23;;
20124;SDS011;10223;50.862;4.360;2023-04-01T04:05:29;10.40;;;4.17;;
20124;SDS011;10223;50.862;4.360;2023-04-01T04:07:58;11.10;;;4.07;;
20124;SDS011;10223;50.862;4.360;2023-04-01T04:10:24;9.53;;;4.37;;
20124;SDS011;10223;50.862;4.360;2023-04-01T04:12:52;11.77;;;5.20;;
20124;SDS011;10223;50.862;4.360;2023-04-01T04:15:19;16.33;;;4.93;;
20124;SDS011;10223;50.862;4.360;2023-04-01T04:17:46;12.23;;;4.43;;
20124;SDS011;10223;50.862;4.360;2023-04-01T04:20:13;12.37;;;5.00;;
20124;SDS011;10223;50.862;4.360;2023-04-01T04:22:40;8.47;;;3.83;;
20124;SDS011;10223;50.862;4.360;2023-04-01T04:25:09;8.20;;;3.57;;
20124;SDS011;10223;50.862;4.360;2023-04-01T04:27:36;10.00;;;4.20;;
20124;SDS011;10223;50.862;4.360;2023-04-01T04:30:07;11.23;;;3.43;;
20124;SDS011;10223;50.862;4.360;2023-04-01T04:32:35;9.77;;;3.40;;
20124;SDS011;10223;50.862;4.360;2023-04-01T04:35:02;6.03;;;3.60;;
20124;SDS011;10223;50.862;4.360;2023-04-01T04:37:31;6.33;;;3.10;;
20124;SDS011;10223;50.862;4.360;2023-04-01T04:39:58;10.13;;;3.67;;
20124;SDS011;10223;50.862;4.360;2023-04-01T04:42:26;5.70;;;2.60;;
20124;SDS011;10223;50.862;4.360;2023-04-01T04:44:53;5.87;;;2.90;;
20124;SDS011;10223;50.862;4.360;2023-04-01T04:47:20;5.87;;;2.70;;
20124;SDS011;10223;50.862;4.360;2023-04-01T04:49:47;9.13;;;3.03;;
20124;SDS011;10223;50.862;4.360;2023-04-01T04:52:14;7.63;;;2.87;;
20124;SDS011;10223;50.862;4.360;2023-04-01T04:54:41;6.37;;;2.60;;
20124;SDS011;10223;50.862;4.360;2023-04-01T04:57:08;6.70;;;2.70;;
20124;SDS011;10223;50.862;4.360;2023-04-01T04:59:37;4.17;;;2.60;;
20124;SDS011;10223;50.862;4.360;2023-04-01T05:02:04;3.80;;;2.17;;
20124;SDS011;10223;50.862;4.360;2023-04-01T05:04:33;3.47;;;2.43;;
20124;SDS011;10223;50.862;4.360;2023-04-01T05:07:01;5.13;;;2.67;;
20124;SDS011;10223;50.862;4.360;2023-04-01T05:09:28;3.93;;;2.47;;
20124;SDS011;10223;50.862;4.360;2023-04-01T05:11:56;4.90;;;2.90;;
20124;SDS011;10223;50.862;4.360;2023-04-01T05:14:23;5.83;;;3.63;;
20124;SDS011;10223;50.862;4.360;2023-04-01T05:16:51;4.50;;;3.30;;
20124;SDS011;10223;50.862;4.360;2023-04-01T05:19:19;5.50;;;3.23;;
20124;SDS011;10223;50.862;4.360;2023-04-01T05:21:46;5.03;;;3.40;;
20124;SDS011;10223;50.862;4.360;2023-04-01T05:24:13;7.57;;;4.30;;
20124;SDS011;10223;50.862;4.360;2023-04-01T05:26:40;10.40;;;4.13;;
20124;SDS011;10223;50.862;4.360;2023-04-01T05:29:06;6.03;;;3.40;;
20124;SDS011;10223;50.862;4.360;2023-04-01T05:31:33;8.33;;;3.50;;
20124;SDS011;10223;50.862;4.360;2023-04-01T05:34:02;6.93;;;3.77;;
20124;SDS011;10223;50.862;4.360;2023-04-01T05:36:29;8.33;;;4.50;;
20124;SDS011;10223;50.862;4.360;2023-04-01T05:38:56;8.93;;;3.70;;
20124;SDS011;10223;50.862;4.360;2023-04-01T05:41:23;6.03;;;4.10;;
20124;SDS011;10223;50.862;4.360;2023-04-01T05:43:50;12.37;;;5.53;;
20124;SDS011;10223;50.862;4.360;2023-04-01T05:46:16;12.57;;;4.70;;
20124;SDS011;10223;50.862;4.360;2023-04-01T05:48:43;17.30;;;5.33;;
20124;SDS011;10223;50.862;4.360;2023-04-01T05:51:13;13.50;;;4.60;;
20124;SDS011;10223;50.862;4.360;2023-04-01T05:53:40;9.53;;;4.77;;
20124;SDS011;10223;50.862;4.360;2023-04-01T05:56:08;13.60;;;5.20;;
20124;SDS011;10223;50.862;4.360;2023-04-01T05:58:35;7.67;;;4.57;;
20124;SDS011;10223;50.862;4.360;2023-04-01T06:01:02;12.07;;;4.87;;
20124;SDS011;10223;50.862;4.360;2023-04-01T06:03:31;16.43;;;5.90;;
20124;SDS011;10223;50.862;4.360;2023-04-01T06:05:58;9.93;;;5.40;;
20124;SDS011;10223;50.862;4.360;2023-04-01T06:08:27;9.80;;;6.23;;
20124;SDS011;10223;50.862;4.360;2023-04-01T06:11:04;14.47;;;6.70;;
20124;SDS011;10223;50.862;4.360;2023-04-01T06:13:47;17.80;;;6.77;;
20124;SDS011;10223;50.862;4.360;2023-04-01T06:16:35;11.97;;;6.20;;
20124;SDS011;10223;50.862;4.360;2023-04-01T06:19:20;14.23;;;6.40;;
20124;SDS011;10223;50.862;4.360;2023-04-01T06:25:04;14.10;;;6.37;;
20124;SDS011;10223;50.862;4.360;2023-04-01T06:27:46;18.23;;;6.93;;
20124;SDS011;10223;50.862;4.360;2023-04-01T06:30:34;13.47;;;6.03;;
20124;SDS011;10223;50.862;4.360;2023-04-01T06:33:14;9.47;;;5.53;;
20124;SDS011;10223;50.862;4.360;2023-04-01T06:36:06;14.07;;;5.90;;
20124;SDS011;10223;50.862;4.360;2023-04-01T06:38:58;11.57;;;5.50;;
20124;SDS011;10223;50.862;4.360;2023-04-01T06:41:56;10.73;;;5.80;;
20124;SDS011;10223;50.862;4.360;2023-04-01T06:44:43;11.50;;;5.03;;
20124;SDS011;10223;50.862;4.360;2023-04-01T06:47:27;10.37;;;5.10;;
20124;SDS011;10223;50.862;4.360;2023-04-01T06:50:05;9.63;;;5.23;;
20124;SDS011;10223;50.862;4.360;2023-04-01T06:52:45;17.37;;;6.30;;
20124;SDS011;10223;50.862;4.360;2023-04-01T06:55:24;13.00;;;5.73;;
20124;SDS011;10223;50.862;4.360;2023-04-01T06:57:56;9.87;;;5.03;;
20124;SDS011;10223;50.862;4.360;2023-04-01T07:00:27;11.83;;;5.17;;
20124;SDS011;10223;50.862;4.360;2023-04-01T07:03:00;13.57;;;5.60;;
20124;SDS011;10223;50.862;4.360;2023-04-01T07:05:32;9.73;;;5.30;;
20124;SDS011;10223;50.862;4.360;2023-04-01T07:08:01;10.70;;;5.07;;
20124;SDS011;10223;50.862;4.360;2023-04-01T07:10:33;10.67;;;4.60;;
20124;SDS011;10223;50.862;4.360;2023-04-01T07:13:09;9.20;;;4.33;;
20124;SDS011;10223;50.862;4.360;2023-04-01T07:15:42;7.00;;;4.00;;
20124;SDS011;10223;50.862;4.360;2023-04-01T07:18:22;6.93;;;4.03;;
20124;SDS011;10223;50.862;4.360;2023-04-01T07:20:54;5.63;;;3.30;;
20124;SDS011;10223;50.862;4.360;2023-04-01T07:23:22;7.57;;;3.40;;
20124;SDS011;10223;50.862;4.360;2023-04-01T07:25:51;6.50;;;3.53;;
20124;SDS011;10223;50.862;4.360;2023-04-01T07:28:24;8.53;;;3.47;;
20124;SDS011;10223;50.862;4.360;2023-04-01T07:30:58;4.70;;;2.63;;
20124;SDS011;10223;50.862;4.360;2023-04-01T07:33:37;7.80;;;2.83;;
20124;SDS011;10223;50.862;4.360;2023-04-01T07:36:10;5.80;;;2.73;;
20124;SDS011;10223;50.862;4.360;2023-04-01T07:38:47;3.00;;;2.10;;
20124;SDS011;10223;50.862;4.360;2023-04-01T07:41:26;4.07;;;2.50;;
20124;SDS011;10223;50.862;4.360;2023-04-01T07:44:02;4.10;;;2.60;;
20124;SDS011;10223;50.862;4.360;2023-04-01T07:46:39;5.43;;;2.70;;
20124;SDS011;10223;50.862;4.360;2023-04-01T07:49:29;5.20;;;2.83;;
20124;SDS011;10223;50.862;4.360;2023-04-01T07:52:04;3.77;;;2.43;;
20124;SDS011;10223;50.862;4.360;2023-04-01T07:54:41;4.20;;;2.80;;
20124;SDS011;10223;50.862;4.360;2023-04-01T07:57:15;4.10;;;2.27;;
20124;SDS011;10223;50.862;4.360;2023-04-01T07:59:51;4.30;;;2.03;;
20124;SDS011;10223;50.862;4.360;2023-04-01T08:02:28;4.90;;;2.10;;
20124;SDS011;10223;50.862;4.360;2023-04-01T08:05:08;2.50;;;1.60;;
20124;SDS011;10223;50.862;4.360;2023-04-01T08:07:44;5.87;;;1.40;;
20124;SDS011;10223;50.862;4.360;2023-04-01T08:10:18;2.27;;;1.63;;
20124;SDS011;10223;50.862;4.360;2023-04-01T08:12:52;2.07;;;1.40;;
20124;SDS011;10223;50.862;4.360;2023-04-01T08:15:28;2.63;;;1.20;;
20124;SDS011;10223;50.862;4.360;2023-04-01T08:18:05;2.33;;;1.47;;
20124;SDS011;10223;50.862;4.360;2023-04-01T08:20:43;2.60;;;1.53;;
20124;SDS011;10223;50.862;4.360;2023-04-01T08:23:15;3.23;;;1.20;;
20124;SDS011;10223;50.862;4.360;2023-04-01T08:25:46;3.20;;;1.53;;
20124;SDS011;10223;50.862;4.360;2023-04-01T08:28:19;1.90;;;1.20;;
20124;SDS011;10223;50.862;4.360;2023-04-01T08:30:52;3.00;;;1.30;;
20124;SDS011;10223;50.862;4.360;2023-04-01T08:33:24;5.43;;;1.50;;
20124;SDS011;10223;50.862;4.360;2023-04-01T08:35:55;1.87;;;1.40;;
20124;SDS011;10223;50.862;4.360;2023-04-01T08:38:29;5.03;;;1.50;;
20124;SDS011;10223;50.862;4.360;2023-04-01T08:40:59;3.57;;;1.40;;
20124;SDS011;10223;50.862;4.360;2023-04-01T08:46:34;3.17;;;1.63;;
20124;SDS011;10223;50.862;4.360;2023-04-01T08:49:28;2.23;;;1.30;;
20124;SDS011;10223;50.862;4.360;2023-04-01T08:52:20;1.70;;;1.20;;
20124;SDS011;10223;50.862;4.360;2023-04-01T08:55:01;2.60;;;1.30;;
20124;SDS011;10223;50.862;4.360;2023-04-01T08:57:52;5.73;;;1.47;;
20124;SDS011;10223;50.862;4.360;2023-04-01T09:00:38;3.20;;;1.30;;
20124;SDS011;10223;50.862;4.360;2023-04-01T09:03:27;1.77;;;1.00;;
20124;SDS011;10223;50.862;4.360;2023-04-01T09:06:22;4.37;;;1.03;;
20124;SDS011;10223;50.862;4.360;2023-04-01T09:09:05;2.07;;;1.30;;
20124;SDS011;10223;50.862;4.360;2023-04-01T09:11:59;1.63;;;0.93;;
20124;SDS011;10223;50.862;4.360;2023-04-01T09:14:54;1.50;;;1.13;;
20124;SDS011;10223;50.862;4.360;2023-04-01T09:17:54;1.53;;;1.10;;
20124;SDS011;10223;50.862;4.360;2023-04-01T09:24:18;4.80;;;2.43;;
20124;SDS011;10223;50.862;4.360;2023-04-01T09:26:56;5.33;;;1.80;;
20124;SDS011;10223;50.862;4.360;2023-04-01T09:32:42;3.00;;;1.90;;
20124;SDS011;10223;50.862;4.360;2023-04-01T09:35:45;2.53;;;1.80;;
20124;SDS011;10223;50.862;4.360;2023-04-01T09:38:20;4.63;;;2.07;;
20124;SDS011;10223;50.862;4.360;2023-04-01T09:40:50;3.80;;;2.60;;
20124;SDS011;10223;50.862;4.360;2023-04-01T09:43:25;4.60;;;1.80;;
20124;SDS011;10223;50.862;4.360;2023-04-01T09:45:59;5.03;;;1.80;;
20124;SDS011;10223;50.862;4.360;2023-04-01T09:51:55;3.10;;;1.90;;
20124;SDS011;10223;50.862;4.360;2023-04-01T09:54:37;4.97;;;2.93;;
20124;SDS011;10223;50.862;4.360;2023-04-01T09:57:19;6.43;;;2.90;;
20124;SDS011;10223;50.862;4.360;2023-04-01T10:03:18;4.17;;;2.00;;
20124;SDS011;10223;50.862;4.360;2023-04-01T10:15:40;5.53;;;1.70;;
20124;SDS011;10223;50.862;4.360;2023-04-01T10:21:52;2.33;;;1.60;;
20124;SDS011;10223;50.862;4.360;2023-04-01T10:24:55;9.20;;;1.60;;
20124;SDS011;10223;50.862;4.360;2023-04-01T10:27:43;3.30;;;1.60;;
20124;SDS011;10223;50.862;4.360;2023-04-01T10:30:42;2.83;;;1.50;;
20124;SDS011;10223;50.862;4.360;2023-04-01T10:36:35;2.67;;;1.30;;
20124;SDS011;10223;50.862;4.360;2023-04-01T10:42:39;4.13;;;1.00;;
20124;SDS011;10223;50.862;4.360;2023-04-01T10:45:38;1.27;;;0.90;;
20124;SDS011;10223;50.862;4.360;2023-04-01T10:48:48;1.93;;;0.87;;
20124;SDS011;10223;50.862;4.360;2023-04-01T10:54:50;1.30;;;1.00;;
20124;SDS011;10223;50.862;4.360;2023-04-01T10:57:44;2.73;;;1.00;;
20124;SDS011;10223;50.862;4.360;2023-04-01T11:00:39;1.73;;;1.00;;
20124;SDS011;10223;50.862;4.360;2023-04-01T11:03:53;3.03;;;1.93;;
20124;SDS011;10223;50.862;4.360;2023-04-01T11:09:52;3.17;;;0.90;;
20124;SDS011;10223;50.862;4.360;2023-04-01T11:13:12;2.40;;;1.17;;
20124;SDS011;10223;50.862;4.360;2023-04-01T11:15:59;3.37;;;0.90;;
20124;SDS011;10223;50.862;4.360;2023-04-01T11:19:09;2.93;;;0.90;;
20124;SDS011;10223;50.862;4.360;2023-04-01T11:21:56;2.00;;;1.03;;
20124;SDS011;10223;50.862;4.360;2023-04-01T11:24:47;3.53;;;1.00;;
20124;SDS011;10223;50.862;4.360;2023-04-01T11:27:54;2.93;;;1.40;;
20124;SDS011;10223;50.862;4.360;2023-04-01T11:30:43;3.17;;;1.33;;
20124;SDS011;10223;50.862;4.360;2023-04-01T11:33:21;3.87;;;1.17;;
20124;SDS011;10223;50.862;4.360;2023-04-01T11:35:55;2.80;;;1.33;;
20124;SDS011;10223;50.862;4.360;2023-04-01T11:38:45;1.93;;;1.23;;
20124;SDS011;10223;50.862;4.360;2023-04-01T11:41:27;2.10;;;1.50;;
20124;SDS011;10223;50.862;4.360;2023-04-01T11:44:09;6.10;;;1.43;;
20124;SDS011;10223;50.862;4.360;2023-04-01T11:46:46;4.70;;;1.80;;
20124;SDS011;10223;50.862;4.360;2023-04-01T11:49:32;1.80;;;1.20;;
20124;SDS011;10223;50.862;4.360;2023-04-01T11:52:13;1.87;;;1.00;;
20124;SDS011;10223;50.862;4.360;2023-04-01T11:55:10;1.50;;;1.00;;
20124;SDS011;10223;50.862;4.360;2023-04-01T11:57:54;3.97;;;1.00;;
20124;SDS011;10223;50.862;4.360;2023-04-01T12:00:43;1.83;;;1.20;;
20124;SDS011;10223;50.862;4.360;2023-04-01T12:06:15;3.57;;;1.40;;
20124;SDS011;10223;50.862;4.360;2023-04-01T12:08:50;2.47;;;1.00;;
20124;SDS011;10223;50.862;4.360;2023-04-01T12:11:23;4.10;;;1.23;;
20124;SDS011;10223;50.862;4.360;2023-04-01T12:13:59;5.23;;;1.80;;
20124;SDS011;10223;50.862;4.360;2023-04-01T12:16:43;2.03;;;1.20;;
20124;SDS011;10223;50.862;4.360;2023-04-01T12:19:20;3.10;;;1.40;;
20124;SDS011;10223;50.862;4.360;2023-04-01T12:21:57;3.83;;;1.50;;
20124;SDS011;10223;50.862;4.360;2023-04-01T12:24:45;3.83;;;1.43;;
20124;SDS011;10223;50.862;4.360;2023-04-01T12:27:18;3.23;;;1.70;;
20124;SDS011;10223;50.862;4.360;2023-04-01T12:30:02;5.43;;;2.27;;
20124;SDS011;10223;50.862;4.360;2023-04-01T12:32:49;4.33;;;1.80;;
20124;SDS011;10223;50.862;4.360;2023-04-01T12:35:28;8.53;;;1.60;;
20124;SDS011;10223;50.862;4.360;2023-04-01T12:38:07;4.43;;;1.73;;
20124;SDS011;10223;50.862;4.360;2023-04-01T12:40:45;4.07;;;1.90;;
20124;SDS011;10223;50.862;4.360;2023-04-01T12:43:28;2.90;;;1.60;;
20124;SDS011;10223;50.862;4.360;2023-04-01T12:46:15;3.30;;;1.43;;
20124;SDS011;10223;50.862;4.360;2023-04-01T12:52:07;5.97;;;1.73;;
20124;SDS011;10223;50.862;4.360;2023-04-01T12:54:52;2.63;;;1.67;;
20124;SDS011;10223;50.862;4.360;2023-04-01T12:57:48;2.80;;;1.60;;
20124;SDS011;10223;50.862;4.360;2023-04-01T13:00:27;3.20;;;1.80;;
20124;SDS011;10223;50.862;4.360;2023-04-01T13:03:11;2.40;;;1.60;;
20124;SDS011;10223;50.862;4.360;2023-04-01T13:05:59;4.17;;;2.23;;
20124;SDS011;10223;50.862;4.360;2023-04-01T13:08:43;2.83;;;1.60;;
20124;SDS011;10223;50.862;4.360;2023-04-01T13:11:19;3.67;;;2.10;;
20124;SDS011;10223;50.862;4.360;2023-04-01T13:16:48;2.60;;;1.30;;
20124;SDS011;10223;50.862;4.360;2023-04-01T13:19:25;2.83;;;1.40;;
20124;SDS011;10223;50.862;4.360;2023-04-01T13:21:58;3.43;;;1.97;;
20124;SDS011;10223;50.862;4.360;2023-04-01T13:24:39;2.30;;;1.03;;
20124;SDS011;10223;50.862;4.360;2023-04-01T13:27:12;3.43;;;1.33;;
20124;SDS011;10223;50.862;4.360;2023-04-01T13:29:45;1.80;;;1.43;;
20124;SDS011;10223;50.862;4.360;2023-04-01T13:32:27;1.80;;;1.40;;
20124;SDS011;10223;50.862;4.360;2023-04-01T13:35:03;3.40;;;1.10;;
20124;SDS011;10223;50.862;4.360;2023-04-01T13:37:46;2.10;;;1.30;;
20124;SDS011;10223;50.862;4.360;2023-04-01T13:40:32;2.27;;;1.43;;
20124;SDS011;10223;50.862;4.360;2023-04-01T13:43:07;4.37;;;2.53;;
20124;SDS011;10223;50.862;4.360;2023-04-01T13:45:43;2.23;;;1.40;;
20124;SDS011;10223;50.862;4.360;2023-04-01T13:48:32;2.10;;;1.10;;
20124;SDS011;10223;50.862;4.360;2023-04-01T13:51:21;2.37;;;1.87;;
20124;SDS011;10223;50.862;4.360;2023-04-01T13:54:18;2.87;;;0.87;;
20124;SDS011;10223;50.862;4.360;2023-04-01T13:57:02;1.87;;;1.10;;
20124;SDS011;10223;50.862;4.360;2023-04-01T13:59:48;2.20;;;1.23;;
20124;SDS011;10223;50.862;4.360;2023-04-01T14:05:47;3.67;;;1.43;;
20124;SDS011;10223;50.862;4.360;2023-04-01T14:08:36;4.00;;;1.00;;
20124;SDS011;10223;50.862;4.360;2023-04-01T14:11:19;2.60;;;1.23;;
20124;SDS011;10223;50.862;4.360;2023-04-01T14:13:56;2.80;;;1.20;;
20124;SDS011;10223;50.862;4.360;2023-04-01T14:19:46;1.90;;;1.00;;
20124;SDS011;10223;50.862;4.360;2023-04-01T14:22:30;2.30;;;1.10;;
20124;SDS011;10223;50.862;4.360;2023-04-01T14:27:56;2.77;;;1.07;;
20124;SDS011;10223;50.862;4.360;2023-04-01T14:30:37;1.57;;;1.00;;
20124;SDS011;10223;50.862;4.360;2023-04-01T14:33:19;2.07;;;1.10;;
20124;SDS011;10223;50.862;4.360;2023-04-01T14:35:58;1.43;;;0.90;;
20124;SDS011;10223;50.862;4.360;2023-04-01T14:38:42;3.33;;;1.67;;
20124;SDS011;10223;50.862;4.360;2023-04-01T14:41:19;3.13;;;1.30;;
20124;SDS011;10223;50.862;4.360;2023-04-01T14:43:55;2.03;;;1.10;;
20124;SDS011;10223;50.862;4.360;2023-04-01T14:49:52;1.30;;;0.90;;
20124;SDS011;10223;50.862;4.360;2023-04-01T14:52:25;2.23;;;1.00;;
20124;SDS011;10223;50.862;4.360;2023-04-01T14:54:56;3.00;;;1.30;;
20124;SDS011;10223;50.862;4.360;2023-04-01T14:57:25;2.70;;;1.03;;
20124;SDS011;10223;50.862;4.360;2023-04-01T14:59:54;1.70;;;1.17;;
20124;SDS011;10223;50.862;4.360;2023-04-01T15:02:32;10.90;;;1.77;;
20124;SDS011;10223;50.862;4.360;2023-04-01T15:05:13;2.53;;;1.27;;
20124;SDS011;10223;50.862;4.360;2023-04-01T15:10:49;6.90;;;1.30;;
20124;SDS011;10223;50.862;4.360;2023-04-01T15:16:29;3.20;;;1.10;;
20124;SDS011;10223;50.862;4.360;2023-04-01T15:19:06;2.27;;;0.97;;
20124;SDS011;10223;50.862;4.360;2023-04-01T15:24:41;3.17;;;1.20;;
20124;SDS011;10223;50.862;4.360;2023-04-01T15:27:34;4.17;;;1.20;;
20124;SDS011;10223;50.862;4.360;2023-04-01T15:30:14;1.73;;;1.07;;
20124;SDS011;10223;50.862;4.360;2023-04-01T15:32:56;1.90;;;1.17;;
20124;SDS011;10223;50.862;4.360;2023-04-01T15:35:39;2.00;;;1.17;;
20124;SDS011;10223;50.862;4.360;2023-04-01T15:38:20;3.53;;;1.27;;
20124;SDS011;10223;50.862;4.360;2023-04-01T15:40:53;2.57;;;1.17;;
20124;SDS011;10223;50.862;4.360;2023-04-01T15:43:27;2.93;;;1.20;;
20124;SDS011;10223;50.862;4.360;2023-04-01T15:46:09;2.77;;;1.13;;
20124;SDS011;10223;50.862;4.360;2023-04-01T15:48:56;3.10;;;1.20;;
20124;SDS011;10223;50.862;4.360;2023-04-01T15:51:38;2.70;;;1.13;;
20124;SDS011;10223;50.862;4.360;2023-04-01T15:54:36;1.30;;;0.90;;
20124;SDS011;10223;50.862;4.360;2023-04-01T15:57:28;4.17;;;1.00;;
20124;SDS011;10223;50.862;4.360;2023-04-01T16:13:58;43.63;;;21.30;;
20124;SDS011;10223;50.862;4.360;2023-04-01T16:17:16;1.40;;;1.00;;
20124;SDS011;10223;50.862;4.360;2023-04-01T16:19:59;2.23;;;0.80;;
20124;SDS011;10223;50.862;4.360;2023-04-01T16:22:30;1.13;;;0.73;;
20124;SDS011;10223;50.862;4.360;2023-04-01T16:25:14;3.27;;;1.20;;
20124;SDS011;10223;50.862;4.360;2023-04-01T16:27:58;1.47;;;1.00;;
20124;SDS011;10223;50.862;4.360;2023-04-01T16:30:40;2.43;;;1.17;;
20124;SDS011;10223;50.862;4.360;2023-04-01T16:33:14;4.07;;;1.30;;
20124;SDS011;10223;50.862;4.360;2023-04-01T16:35:47;1.50;;;0.90;;
20124;SDS011;10223;50.862;4.360;2023-04-01T16:38:23;2.13;;;1.23;;
20124;SDS011;10223;50.862;4.360;2023-04-01T16:40:58;2.80;;;1.07;;
20124;SDS011;10223;50.862;4.360;2023-04-01T16:43:35;2.00;;;1.10;;
20124;SDS011;10223;50.862;4.360;2023-04-01T16:49:13;3.77;;;1.37;;
20124;SDS011;10223;50.862;4.360;2023-04-01T16:51:52;3.47;;;1.50;;
20124;SDS011;10223;50.862;4.360;2023-04-01T16:54:27;2.07;;;1.20;;
20124;SDS011;10223;50.862;4.360;2023-04-01T16:57:02;3.77;;;1.33;;
20124;SDS011;10223;50.862;4.360;2023-04-01T16:59:44;3.40;;;2.13;;
20124;SDS011;10223;50.862;4.360;2023-04-01T17:02:15;3.37;;;2.10;;
20124;SDS011;10223;50.862;4.360;2023-04-01T17:04:47;3.03;;;1.60;;
20124;SDS011;10223;50.862;4.360;2023-04-01T17:07:21;1.57;;;1.20;;
20124;SDS011;10223;50.862;4.360;2023-04-01T17:10:00;3.73;;;1.50;;
20124;SDS011;10223;50.862;4.360;2023-04-01T17:12:38;2.87;;;1.50;;
20124;SDS011;10223;50.862;4.360;2023-04-01T17:15:14;2.60;;;1.33;;